Weather observations for the past three days for
Sturgis, Kirsch Municipal Airport
Imperial (Metric)
Date Time (edt) Wind (mph) Vis. (mi.) Weather Sky Cond. Temperature (ºF) Relative Humidity Wind Chill (°F) Heat Index (°F) Pressure Precipitation (in)
Air Dwpt 6 hour altimeter (in) sea level (mb) 1 hr 3 hr 6 hr
Max. Min.
01 00:15 SW 6 10.00 Fair CLR 73.4 69.8 89% 29.98 0.0
31 23:55 SW 6 10.00 Fair CLR 75.2 69.8 83% 75 29.98 0.0
31 23:35 SW 3 10.00 Fair CLR 75.2 69.8 83% 75 29.98 0.0
31 23:15 SW 3 10.00 Fair CLR 75.2 71.6 89% 75 29.98 0.0
31 22:55 SW 3 10.00 Fair CLR 73.4 71.6 94% 29.98 0.0
31 22:35 S 5 10.00 Fair CLR 75.2 71.6 89% 75 29.98 0.0
31 22:16 S 5 10.00 Fair CLR 75.2 71.6 89% 75 29.98 0.0
31 21:55 SW 2 10.00 Fair CLR 77 71.6 83% 78 29.98 0.0
31 21:35 S 7 10.00 Fair CLR 77 71.6 83% 78 29.97 0.0
31 21:15 S 8 10.00 Fair CLR 78.8 71.6 79% 82 29.97 0.0
31 20:55 S 7 10.00 Fair CLR 78.8 73.4 84% 82 29.96 0.0
31 20:35 S 8 10.00 A Few Clouds FEW100 78.8 73.4 84% 82 29.95 0.0
31 20:15 S 7 10.00 Fair CLR 78.8 73.4 84% 82 29.95 0.0
31 19:35 S 8 10.00 A Few Clouds FEW110 78.8 73.4 84% 82 29.96 0.0
31 19:15 S 12 10.00 Light Rain BKN110 78.8 73.4 84% 82 29.94 0.0
31 18:55 S 12 10.00 Light Rain BKN110 80.6 73.4 79% 85 29.97 0.0
31 18:35 S 6 10.00 Mostly Cloudy BKN110 80.6 73.4 79% 85 30 0.0
31 18:15 SW 5 10.00 Partly Cloudy SCT110 80.6 71.6 74% 85 30 0.0
31 17:55 S 8 10.00 Fair CLR 80.6 71.6 74% 85 29.98 0.0
31 17:36 S 9 10.00 Fair CLR 82.4 71.6 70% 87 29.98 0.0
31 17:15 S 12 10.00 Fair CLR 84.2 71.6 66% 90 29.99 0.0
31 16:55 SW 9 10.00 Fair CLR 84.2 69.8 62% 88 29.98 0.0
31 16:35 S 12 10.00 Fair CLR 84.2 69.8 62% 88 29.98 0.0
31 16:15 SW 14 10.00 Fair CLR 84.2 69.8 62% 88 29.98 0.0
31 15:55 S 10 10.00 Fair CLR 82.4 69.8 66% 86 29.98 0.0
31 15:35 S 13 10.00 Fair CLR 82.4 69.8 66% 86 29.99 0.0
31 15:16 S 12 10.00 A Few Clouds FEW100 80.6 68 66% 83 30 0.0
31 14:56 SW 12 10.00 A Few Clouds FEW100 78.8 68 70% 81 30.02 0.0
31 14:35 SW 12 10.00 Fair CLR 77 68 74% 79 30.02 0.0
31 14:15 SW 13 G 18 10.00 Partly Cloudy SCT110 78.8 68 70% 81 30.03 0.0
31 13:55 S 9 10.00 Overcast FEW024 FEW031 OVC110 77 69.8 77.7 70.5 79% 79 30.03 0.0
31 13:35 S 8 10.00 Light Rain SCT029 SCT055 BKN070 75.2 69.8 83% 75 30.04 0.0
31 13:15 SW 9 10.00 A Few Clouds FEW041 FEW047 FEW080 75.2 68 78% 76 30.06 0.0
31 12:56 SW 10 10.00 A Few Clouds FEW043 77 68 74% 79 30.06 0.0
31 12:35 SW 7 10.00 Fair CLR 77 68 74% 79 30.06 0.0
31 12:15 S 5 10.00 Fair CLR 75.2 68 78% 76 30.05 0.0
31 11:55 SW 7 10.00 Fair CLR 75.2 68 78% 76 30.06 0.0
31 11:35 SW 8 10.00 A Few Clouds FEW041 FEW060 FEW100 75.2 68 78% 76 30.07 0.0
31 11:15 SW 7 10.00 A Few Clouds FEW065 FEW100 73.4 68 83% 30.06 0.0
31 10:56 SW 9 10.00 Partly Cloudy FEW090 SCT110 73.4 68 83% 30.05 0.0
31 10:36 SW 8 10.00 Partly Cloudy SCT100 SCT120 73.4 68 83% 30.05 0.0
31 10:15 SW 8 10.00 Fair CLR 73.4 68 83% 30.05 0.0
31 09:55 SW 8 10.00 Fair CLR 73.4 68 83% 30.05 0.0
31 09:35 S 8 10.00 Fair CLR 73.4 68 83% 30.04 0.0
31 09:15 S 6 10.00 Fair CLR 71.6 68 88% 30.05 0.0
31 08:55 SW 3 10.00 Fair CLR 71.6 68 88% 30.05 0.0
31 08:35 S 6 10.00 Fair CLR 71.6 68 88% 30.04 0.0
31 08:16 S 7 10.00 Fair CLR 71.6 68 88% 30.03 0.0
31 07:55 S 6 10.00 Fair CLR 69.8 68 72 66.9 94% 30.03 0.0
31 07:35 S 6 10.00 Fair CLR 71.6 68 88% 30.02 0.0
31 07:15 S 7 10.00 Fair CLR 69.8 68 94% 30.02 0.0
31 06:55 S 5 10.00 Fair CLR 69.8 66.2 88% 30.02 0.0
31 06:36 S 5 10.00 Fair CLR 69.8 66.2 88% 30.03 0.0
31 06:15 S 5 10.00 Fair CLR 68 66.2 94% 30.03 0.0
31 05:56 S 2 10.00 Fair CLR 69.8 66.2 88% 30.02 0.0
31 05:35 S 5 9.00 Fair CLR 68 66.2 94% 30.03 0.0
31 05:15 S 3 10.00 A Few Clouds FEW120 68 66.2 94% 30.03 0.0
31 04:55 Vrbl 1 10.00 Mostly Cloudy BKN120 69.8 68 94% 30.02 0.0
31 04:35 S 5 10.00 Overcast OVC120 69.8 68 94% 30.02 0.0
31 04:15 S 5 10.00 Overcast OVC110 69.8 68 94% 30.02 0.0
31 03:55 S 5 10.00 Mostly Cloudy BKN120 69.8 68 94% 30.02 0.0
31 03:36 S 3 10.00 Partly Cloudy SCT110 71.6 68 88% 30.02 0.0
31 03:15 S 7 10.00 Mostly Cloudy BKN110 71.6 68 88% 30.01 0.0
31 02:55 S 7 10.00 Mostly Cloudy BKN100 71.6 68 88% 30.02 0.0
31 02:35 S 5 10.00 Mostly Cloudy BKN100 BKN120 69.8 68 94% 30.03 0.0
31 02:15 S 3 10.00 Overcast BKN100 OVC120 71.6 68 88% 30.04 0.0
31 01:55 S 5 10.00 Overcast BKN090 OVC110 71.6 68 72.3 69.8 88% 30.03 0.0 0.01
31 01:35 SE 6 10.00 Overcast SCT075 OVC100 71.6 68 88% 30.04 0.0
31 01:16 S 6 10.00 Light Rain OVC075 71.6 68 88% 30.05 0.0
31 00:55 SW 5 10.00 Overcast BKN075 OVC095 71.6 68 88% 30.05 0.0
31 00:35 S 6 10.00 Overcast FEW075 OVC095 71.6 69.8 94% 30.03 0.0
31 00:15 S 7 10.00 Overcast SCT070 OVC085 71.6 69.8 94% 30.04 0.0
30 23:55 SE 5 10.00 Overcast OVC075 71.6 69.8 94% 30.05 0.0
30 23:35 S 2 10.00 Overcast OVC075 71.6 68 88% 30.05 0.0
30 23:15 SE 5 10.00 Mostly Cloudy BKN080 BKN120 71.6 68 88% 30.05 0.0
30 22:56 SE 5 10.00 A Few Clouds FEW120 69.8 68 94% 30.04 0.0
30 22:35 E 3 10.00 Partly Cloudy SCT110 69.8 68 94% 30.04 0.0
30 22:15 E 3 10.00 A Few Clouds FEW120 69.8 68 94% 30.04 0.0
30 21:55 E 3 10.00 A Few Clouds FEW110 69.8 68 94% 30.04 0.0
30 21:35 SE 3 10.00 Fair CLR 71.6 68 88% 30.04 0.0
30 21:15 SE 3 10.00 Light Rain FEW110 71.6 68 88% 30.03 0.0
30 20:55 S 3 10.00 Light Rain FEW120 71.6 68 88% 30.02 0.0
30 20:37 S 3 10.00 A Few Clouds FEW120 71.6 66.2 83% 30.02 0.0
30 20:15 S 6 10.00 Fair CLR 71.6 66.2 83% 30.02 0.0
30 19:55 SW 8 10.00 Fair CLR 71.6 66.2 82 72.1 83% 30.03 0.0
30 19:35 S 8 10.00 Fair CLR 73.4 66.2 78% 30.02 0.0
30 19:15 SW 13 10.00 Fair CLR 73.4 66.2 78% 30.02 0.0
30 18:55 SW 10 10.00 Fair CLR 75.2 68 78% 76 30.04 0.0
30 18:35 W 8 10.00 Fair CLR 75.2 68 78% 76 30.05 0.0
30 18:16 SW 8 10.00 Fair CLR 77 66.2 69% 79 30.05 0.0
30 17:55 SW 9 10.00 Fair CLR 77 66.2 69% 79 30.05 0.0
30 17:35 SW 10 G 16 10.00 A Few Clouds FEW110 78.8 68 70% 81 30.05 0.0
30 17:15 SW 8 10.00 Mostly Cloudy BKN110 78.8 68 70% 81 30.04 0.0
30 16:55 SW 9 10.00 Overcast OVC110 78.8 68 70% 81 30.05 0.0
30 16:35 SW 14 G 20 10.00 Mostly Cloudy BKN110 78.8 66.2 65% 81 30.05 0.0
30 16:15 SW 12 G 20 10.00 Fair CLR 80.6 66.2 62% 83 30.03 0.0
30 15:55 SW 21 G 25 10.00 Fair and Breezy CLR 80.6 66.2 62% 83 30.03 0.0
30 15:35 SW 15 G 22 10.00 Fair CLR 82.4 66.2 58% 85 30.03 0.0
30 15:15 SW 16 G 23 10.00 A Few Clouds FEW100 80.6 66.2 62% 83 30.03 0.0
30 14:55 SW 16 G 21 10.00 Partly Cloudy SCT100 78.8 68 70% 81 30.03 0.0
30 14:35 S 14 10.00 Fair CLR 77 66.2 69% 79 30.03 0.0
30 14:15 S 14 G 20 10.00 A Few Clouds FEW110 75.2 68 78% 76 30.03 0.0
30 13:55 SW 14 10.00 Mostly Cloudy BKN100 73.4 68 73.4 66.6 83% 30.04 0.0
30 13:36 S 14 10.00 Overcast OVC100 71.6 68 88% 30.05 0.0
30 13:15 S 9 10.00 Overcast OVC100 69.8 66.2 88% 30.06 0.0
30 12:55 S 8 10.00 Overcast OVC100 69.8 66.2 88% 30.07 0.0 0.01
30 12:35 S 10 10.00 Light Rain FEW029 FEW050 OVC100 68 66.2 94% 30.07 0.0
30 12:15 S 10 7.00 Light Rain BKN090 OVC120 68 66.2 94% 30.09 0.0
30 11:55 S 5 9.00 Light Rain FEW065 OVC090 68 66.2 94% 30.12 0.0 0.04
30 11:35 S 6 7.00 Light Rain Fog/Mist FEW065 SCT075 OVC100 68 66.2 94% 30.13 0.0
30 11:16 SE 5 6.00 Light Rain Fog/Mist OVC100 68 66.2 94% 30.14 0.0
30 10:56 SE 3 4.00 Light Rain Fog/Mist FEW075 OVC100 68 66.2 94% 30.15 0.0
30 10:35 SE 2 9.00 Light Rain OVC110 66.2 66.2 100% 30.14 0.0
30 10:15 NE 3 9.00 Light Rain FEW060 OVC100 66.2 66.2 100% 30.14 0.0
30 09:55 NE 2 10.00 Light Rain OVC110 66.2 66.2 100% 30.13 0.0 0.01
30 09:35 NE 3 10.00 Light Rain OVC100 68 64.4 88% 30.12 0.0
30 09:15 N 3 10.00 Overcast OVC100 68 64.4 88% 30.1 0.0
30 08:57 SW 3 10.00 Overcast OVC100 68 64.4 88% 30.09 0.0
30 08:35 S 6 10.00 Overcast OVC100 68 64.4 88% 30.08 0.0
30 08:15 S 5 10.00 Mostly Cloudy BKN100 68 64.4 88% 30.07 0.0
30 07:55 SW 7 10.00 Partly Cloudy SCT110 66.2 62.6 68.9 66 88% 30.06 0.0
30 07:35 S 8 10.00 Mostly Cloudy BKN100 66.2 62.6 88% 30.05 0.0
30 07:15 SW 6 10.00 Overcast OVC110 66.2 62.6 88% 30.05 0.0
30 06:55 S 8 10.00 Overcast OVC110 66.2 62.6 88% 30.04 0.0 0.01
30 06:36 S 8 10.00 Light Rain FEW070 BKN120 66.2 62.6 88% 30.04 0.0
30 06:15 S 9 10.00 Light Rain BKN110 66.2 62.6 88% 30.05 0.0
30 05:56 S 7 10.00 Light Rain BKN110 68 62.6 83% 30.07 0.0
30 05:35 S 5 10.00 Overcast OVC100 68 62.6 83% 30.08 0.0
30 05:15 S 6 10.00 Overcast OVC100 68 62.6 83% 30.08 0.0
30 04:55 S 3 10.00 Overcast OVC100 68 62.6 83% 30.08 0.0
30 04:35 S 3 10.00 Overcast OVC100 68 62.6 83% 30.08 0.0
30 04:16 S 3 10.00 Overcast OVC100 68 62.6 83% 30.07 0.0
30 03:55 S 5 10.00 Overcast OVC100 68 62.6 83% 30.07 0.0
30 03:35 S 6 10.00 Overcast OVC100 68 62.6 83% 30.07 0.0
30 03:15 S 7 10.00 Mostly Cloudy BKN110 68 60.8 78% 30.07 0.0
30 02:55 S 8 10.00 Mostly Cloudy BKN110 68 62.6 83% 30.07 0.0
30 02:35 S 7 10.00 Mostly Cloudy BKN110 68 62.6 83% 30.08 0.0
30 02:15 S 6 10.00 Overcast OVC110 68 62.6 83% 30.08 0.0
30 01:56 S 3 10.00 Overcast OVC110 68 62.6 83% 30.09 0.0
30 01:35 S 5 10.00 Partly Cloudy SCT110 68 62.6 83% 30.09 0.0
30 01:15 S 3 10.00 A Few Clouds FEW110 68 64.4 88% 30.09 0.0
30 00:55 S 5 10.00 Overcast OVC110 68 64.4 88% 30.1 0.0 0.01
30 00:35 S 5 10.00 Partly Cloudy SCT110 68 64.4 88% 30.1 0.0
30 00:15 S 5 10.00 Partly Cloudy SCT110 68 64.4 88% 30.09 0.0
29 23:56 S 5 10.00 Light Rain OVC110 69.8 64.4 83% 30.09 0.0
29 23:35 SE 5 10.00 Overcast OVC110 69.8 64.4 83% 30.09 0.0
29 23:15 S 5 10.00 Overcast OVC110 69.8 64.4 83% 30.09 0.0
29 22:55 SE 5 10.00 Overcast OVC110 69.8 64.4 83% 30.09 0.0
29 22:35 SE 7 10.00 Light Rain FEW070 FEW085 BKN120 69.8 64.4 83% 30.09 0.0
29 22:15 Calm 10.00 Fair CLR 68 66.2 94% 30.1 0.0
29 21:55 Calm 10.00 Light Rain CLR 68 66.2 94% 30.1 0.0
29 21:36 NE 2 10.00 Light Rain FEW120 68 64.4 88% 30.1 0.0
29 21:15 S 3 10.00 A Few Clouds FEW070 69.8 64.4 83% 30.1 0.0
29 20:55 SW 1 10.00 Fair CLR 69.8 64.4 83% 30.1 0.0
29 20:35 W 1 10.00 Fair CLR 69.8 64.4 83% 30.1 0.0
29 20:15 SW 3 10.00 Fair CLR 71.6 64.4 78% 30.09 0.0
29 19:55 S 3 10.00 Fair CLR 73.4 64.4 80.4 73.2 74% 30.09 0.0
29 19:35 S 5 10.00 Fair CLR 75.2 62.6 65% 77 30.1 0.0
29 19:16 S 7 10.00 Fair CLR 75.2 62.6 65% 77 30.1 0.0
29 18:55 S 6 10.00 Fair CLR 75.2 62.6 65% 77 30.11 0.0
29 18:35 SW 6 10.00 A Few Clouds FEW048 FEW055 75.2 62.6 65% 77 30.11 0.0
29 18:15 S 8 10.00 Fair CLR 77 60.8 57% 79 30.11 0.0
29 17:55 SW 6 10.00 A Few Clouds FEW045 77 60.8 57% 79 30.12 0.0
29 17:35 SW 9 10.00 A Few Clouds FEW050 78.8 60.8 54% 80 30.12 0.0
29 17:15 SW 6 10.00 A Few Clouds FEW050 77 60.8 57% 79 30.12 0.0
29 16:56 SW 7 10.00 Fair CLR 78.8 60.8 54% 80 30.12 0.0
29 16:35 SW 7 10.00 Fair CLR 78.8 60.8 54% 80 30.12 0.0
29 16:15 SW 7 10.00 A Few Clouds FEW045 78.8 60.8 54% 80 30.13 0.0
29 15:55 SW 7 10.00 Fair CLR 78.8 60.8 54% 80 30.14 0.0
29 15:35 Vrbl 5 10.00 A Few Clouds FEW055 80.6 60.8 51% 81 30.15 0.0
29 15:15 SW 8 10.00 A Few Clouds FEW055 78.8 60.8 54% 80 30.15 0.0
29 14:55 SW 8 10.00 Fair CLR 80.6 62.6 54% 82 30.16 0.0
29 14:36 SW 7 10.00 Fair CLR 78.8 60.8 54% 80 30.16 0.0
29 14:15 W 8 10.00 Fair CLR 78.8 60.8 54% 80 30.17 0.0
29 13:55 SW 5 10.00 Fair CLR 78.8 60.8 78.6 58.5 54% 80 30.18 0.0
29 13:35 SW 8 10.00 Fair CLR 78.8 62.6 58% 80 30.18 0.0
29 13:15 S 6 10.00 Fair CLR 78.8 60.8 54% 80 30.19 0.0
29 12:55 SW 6 10.00 Fair CLR 77 62.6 61% 79 30.19 0.0
29 12:35 SW 10 10.00 Fair CLR 77 59 54% 79 30.2 0.0
29 12:16 SW 10 10.00 Fair CLR 77 60.8 57% 79 30.21 0.0
29 11:56 SW 10 10.00 Fair CLR 77 62.6 61% 79 30.21 0.0
29 11:35 S 9 10.00 Fair CLR 75.2 62.6 65% 77 30.2 0.0
29 11:15 SW 8 10.00 Fair CLR 75.2 60.8 61% 77 30.21 0.0
29 10:55 SW 7 10.00 Fair CLR 73.4 60.8 65% 30.21 0.0
29 10:35 SW 7 10.00 Fair CLR 73.4 60.8 65% 30.21 0.0
29 10:15 SW 7 10.00 Fair CLR 71.6 60.8 69% 30.21 0.0
29 09:56 SW 7 10.00 Fair CLR 69.8 59 69% 30.2 0.0
29 09:35 SW 7 10.00 Fair CLR 68 59 73% 30.2 0.0
29 09:15 S 6 10.00 Fair CLR 66.2 59 78% 30.19 0.0
29 08:55 S 6 10.00 Fair CLR 64.4 57.2 78% 30.19 0.0
29 08:35 S 6 10.00 Fair CLR 64.4 57.2 78% 30.19 0.0
29 08:15 S 6 10.00 Fair CLR 62.6 55.4 77% 30.19 0.0
29 07:55 SE 5 10.00 Fair CLR 59 55.4 64.2 57.7 88% 30.18 0.0
29 07:36 SW 1 10.00 Fair CLR 59 55.4 88% 30.2 0.0
29 07:15 S 3 10.00 Fair CLR 59 55.4 88% 30.19 0.0
29 06:55 S 2 10.00 Fair CLR 59 55.4 88% 30.19 0.0
29 06:35 S 3 10.00 Partly Cloudy SCT070 60.8 55.4 83% 30.18 0.0
29 06:15 S 5 10.00 Overcast OVC070 62.6 55.4 77% 30.17 0.0
29 05:55 S 3 10.00 Overcast OVC070 62.6 55.4 77% 30.17 0.0
29 05:35 S 6 10.00 Overcast OVC070 62.6 55.4 77% 30.17 0.0
29 05:16 S 6 10.00 Overcast OVC070 62.6 55.4 77% 30.17 0.0
29 04:55 S 3 10.00 Overcast OVC070 62.6 57.2 83% 30.18 0.0
29 04:35 S 2 10.00 Mostly Cloudy BKN070 60.8 57.2 88% 30.18 0.0
29 04:15 Vrbl 2 10.00 Partly Cloudy SCT070 60.8 57.2 88% 30.17 0.0
29 03:55 S 5 10.00 Mostly Cloudy BKN070 62.6 57.2 83% 30.17 0.0
29 03:35 S 5 10.00 Overcast OVC070 62.6 57.2 83% 30.17 0.0
29 03:15 S 6 10.00 Overcast OVC070 62.6 57.2 83% 30.17 0.0
29 02:56 S 7 10.00 Mostly Cloudy BKN070 64.4 57.2 78% 30.17 0.0
29 02:35 S 7 10.00 Mostly Cloudy BKN070 64.4 57.2 78% 30.17 0.0
29 02:15 S 6 10.00 Mostly Cloudy BKN070 64.4 57.2 78% 30.18 0.0
29 01:55 S 6 10.00 Fair CLR 62.6 57.2 74.5 62.4 83% 30.18 0.0
29 01:35 S 5 10.00 Fair CLR 62.6 57.2 83% 30.18 0.0
29 01:15 S 6 10.00 Fair CLR 64.4 57.2 78% 30.18 0.0
29 00:55 S 5 10.00 Fair CLR 64.4 57.2 78% 30.17 0.0
29 00:36 S 6 10.00 Fair CLR 64.4 57.2 78% 30.17 0.0
Date Time (edt) Wind (mph) Vis. (mi.) Weather Sky Cond. Air Dwpt Max. Min. Relative Humidity Wind Chill (°F) Heat Index (°F) altimeter (in) sea level (mb) 1 hr 3 hr 6 hr
6 hour
Temperature (ºF) Pressure Precipitation (in)